Latest Coastal Weather Observations for Neptune Island

IDS60701

Issued at 12:41 am CST Friday 4 September 2015 (issued every 10 minutes, with the page automatically refreshed every 10 minutes)

About coastal observations | Map of coastal stations | Coastal observations for SA | Marine services | Other Formats
Station Details ID: 018115 Name: NEPTUNE ISLAND Lat: -35.34 Lon: 136.12 Height: 32.0 m
Data from the previous 72 hours. | See also: Recent months at Neptune Island
Date/Time
CST
Temp

°C
Wind Pressure Rain
since 9am
mm
Weather Cloud Vis
km
Sea
Height
m
Swell
Dir
 
Speed
knots
Gust
knots
hPa Trend Height
m
Period
s
Dir
04/12:30am 11.6 SSE 6 10 1027.2 - 0.0 - - - - - - -
04/12:00am 11.5 S 5 8 1027.4 - 0.0 - - - - - - -
 
Date/Time
CST
Temp

°C
Wind Pressure Rain
since 9am
mm
Weather Cloud Vis
km
Sea
Height
m
Swell
Dir
 
Speed
knots
Gust
knots
hPa Trend Height
m
Period
s
Dir
03/11:30pm 11.7 SSW 10 13 1027.4 - 0.0 - - - - - - -
03/11:00pm 11.9 SSW 11 14 1027.6 - 0.0 - - - - - - -
03/10:30pm 11.9 S 9 11 1027.6 - 0.0 - - - - - - -
03/10:00pm 11.9 S 9 11 1027.6 - 0.0 - - - - - - -
03/09:30pm 11.9 SSW 12 16 1027.4 - 0.0 - - - - - - -
03/09:00pm 12.0 S 13 17 1027.2 - 0.0 - - - - - - -
03/08:30pm 12.0 S 11 16 1026.8 - 0.0 - - - - - - -
03/08:00pm 12.0 S 12 16 1026.5 - 0.0 - - - - - - -
03/07:30pm 12.2 S 11 14 1026.5 - 0.0 - - - - - - -
03/07:00pm 12.2 SSE 11 17 1026.3 - 0.0 - - - - - - -
03/06:30pm 12.0 S 12 15 1026.0 - 0.0 - - - - - - -
03/06:00pm 12.1 S 13 16 1025.7 - 0.0 - - - - - - -
03/05:30pm 12.3 S 14 18 1025.2 - 0.0 - - - - - - -
03/05:00pm 12.3 S 16 20 1025.0 - 0.0 - - - - - - -
03/04:30pm 12.6 S 15 17 1024.8 - 0.0 - - - - - - -
03/04:00pm 12.8 S 14 17 1024.7 - 0.0 - - - - - - -
03/03:30pm 12.7 S 16 19 1024.3 - 0.0 - - - - - - -
03/03:00pm 13.1 S 16 19 1024.0 - 0.0 - - - - - - -
03/02:30pm 12.1 SSW 16 20 1023.8 - 0.0 - - - - - - -
03/02:00pm 12.3 S 18 23 1023.7 - 0.0 - - - - - - -
03/01:30pm 12.4 S 19 25 1023.7 - 0.0 - - - - - - -
03/01:00pm 13.1 S 17 21 1023.8 - 0.0 - - - - - - -
03/12:30pm 13.4 S 18 22 1023.7 - 0.0 - - - - - - -
03/12:00pm 13.1 S 18 22 1023.9 - 0.0 - - - - - - -
03/11:30am 12.8 SSW 19 23 1024.0 - 0.0 - - - - - - -
03/11:00am 12.8 SSW 19 23 1023.9 - 0.0 - - - - - - -
03/10:30am 11.9 S 19 22 1023.8 - 0.0 - - - - - - -
03/10:00am 12.8 SSW 21 26 1023.4 - 0.0 - - - - - - -
03/09:30am 12.8 SSW 22 26 1022.9 - 0.0 - - - - - - -
03/09:00am 12.6 SSW 25 29 1022.3 - 4.8 - - - - - - -
03/08:30am 12.1 SSW 25 30 1021.7 - 4.8 - - - - - - -
03/08:00am 12.4 SSW 24 29 1021.1 - 4.8 - - - - - - -
03/07:30am 12.4 SSW 24 29 1020.5 - 4.8 - - - - - - -
03/07:00am 12.7 S 24 30 1019.8 - 4.8 - - - - - - -
03/06:30am 12.4 S 25 31 1018.9 - 4.8 - - - - - - -
03/06:00am 13.1 SSW 27 33 1018.3 - 4.8 - - - - - - -
03/05:30am 13.1 SSW 29 34 1017.7 - 4.8 - - - - - - -
03/05:00am 13.2 SSW 29 35 1017.1 - 4.8 - - - - - - -
03/04:30am 13.1 SSW 29 34 1016.6 - 4.8 - - - - - - -
03/04:00am 13.0 SSW 28 32 1016.2 - 4.8 - - - - - - -
03/03:30am 13.0 SSW 30 35 1015.8 - 4.8 - - - - - - -
03/03:00am 12.7 SSW 29 34 1015.5 - 4.8 - - - - - - -
03/02:30am 12.7 SSW 30 37 1015.0 - 4.8 - - - - - - -
03/02:00am 12.9 SSW 31 38 1014.8 - 4.8 - - - - - - -
03/01:30am 13.1 SSW 32 39 1014.3 - 4.8 - - - - - - -
03/01:00am 13.1 SSW 29 35 1014.1 - 4.4 - - - - - - -
03/12:30am 13.3 SSW 27 34 1013.6 - 4.4 - - - - - - -
03/12:23am 13.6 SSW 24 34 1013.5 - 4.4 - - - - - - -
03/12:00am 13.2 SSW 23 27 1013.3 - 4.4 - - - - - - -
 
Date/Time
CST
Temp

°C
Wind Pressure Rain
since 9am
mm
Weather Cloud Vis
km
Sea
Height
m
Swell
Dir
 
Speed
knots
Gust
knots
hPa Trend Height
m
Period
s
Dir
02/11:43pm 13.4 SSW 26 33 1012.8 - 4.4 - - - - - - -
02/11:30pm 13.3 SSW 20 23 1013.0 - 4.4 - - - - - - -
02/11:00pm 13.2 SSW 21 25 1012.6 - 4.4 - - - - - - -
02/10:30pm 13.1 SSW 22 26 1012.4 - 4.4 - - - - - - -
02/10:00pm 13.1 SSW 23 28 1011.9 - 4.4 - - - - - - -
02/09:30pm 13.1 SSW 23 28 1011.1 - 4.4 - - - - - - -
02/09:00pm 13.2 SSW 25 29 1010.3 - 4.4 - - - - - - -
02/08:30pm 13.4 SSW 27 31 1009.9 - 4.4 - - - - - - -
02/08:00pm 13.1 SSW 25 30 1008.8 - 4.4 - - - - - - -
02/07:30pm 13.2 SSW 30 35 1008.1 - 4.4 - - - - - - -
02/07:00pm 13.2 SSW 27 32 1007.2 - 4.4 - - - - - - -
02/06:53pm 12.8 S 27 37 1007.2 - 4.4 - - - - - - -
02/06:30pm 13.2 SSW 29 34 1006.5 - 4.4 - - - - - - -
02/06:00pm 13.0 SSW 25 31 1005.7 - 4.2 Recent precip. - - - - - -
02/05:30pm 13.3 SSW 27 33 1004.9 - 4.0 - - - - - - -
02/05:00pm 13.3 SSW 26 31 1004.4 - 4.0 - - - - - - -
02/04:30pm 13.2 SSW 26 32 1003.4 - 4.0 - - - - - - -
02/04:00pm 13.1 SSW 27 33 1002.9 - 4.0 - - - - - - -
02/03:30pm 13.3 SSW 27 32 1001.8 - 4.0 - - - - - - -
02/03:00pm 13.0 SSW 25 29 1001.1 - 4.0 - - - - - - -
02/02:30pm 12.6 SSW 20 24 1000.6 - 4.0 - - - - - - -
02/02:00pm 12.8 S 24 29 999.9 - 4.0 - - - - - - -
02/01:30pm 12.8 S 25 30 999.1 - 4.0 - - - - - - -
02/01:00pm 12.6 S 24 28 998.5 - 4.0 - - - - - - -
02/12:30pm 11.9 SSE 21 27 997.9 - 4.0 - - - - - - -
02/12:26pm 12.2 S 20 27 997.8 - 4.0 - - - - - - -
02/12:00pm 13.1 SSW 14 17 996.9 - 4.0 Recent precip. - - - - - -
02/11:30am 11.6 WSW 10 13 997.3 - 4.0 - - - - - - -
02/11:00am 12.5 NW 15 18 997.4 - 3.8 - - - - - - -
02/10:30am 11.5 N 18 22 997.2 - 3.8 - - - - - - -
02/10:00am 10.8 NE 19 24 997.9 - 1.6 - - - - - - -
02/09:30am 10.8 NNE 23 31 998.3 - 0.6 - - - - - - -
02/09:00am 10.8 N 23 26 998.8 - 14.0 Rain - - - - - -
02/08:30am 10.2 N 24 29 999.1 - 12.8 - - - - - - -
02/08:00am 11.0 N 22 27 999.4 - 12.0 - - - - - - -
02/07:30am 11.2 N 22 27 999.3 - 12.0 - - - - - - -
02/07:00am 10.9 N 20 25 999.3 - 12.0 - - - - - - -
02/06:30am 11.1 N 22 27 999.6 - 12.0 - - - - - - -
02/06:00am 11.3 N 23 27 999.6 - 11.8 Recent precip. - - - - - -
02/05:49am 11.2 NNW 19 25 999.6 - 11.8 - - - - - - -
02/05:41am 10.6 NNW 22 31 1000.1 - 11.8 - - - - - - -
02/05:30am 11.8 N 22 28 999.8 - 11.4 - - - - - - -
02/05:00am 11.6 N 21 25 999.8 - 11.4 - - - - - - -
02/04:30am 11.4 N 24 31 999.8 - 11.4 - - - - - - -
02/04:00am 11.3 N 27 31 999.8 - 11.0 - - - - - - -
02/03:30am 12.1 N 25 30 1000.3 - 10.2 - - - - - - -
02/03:00am 12.2 N 24 29 1000.3 - 10.2 - - - - - - -
02/02:30am 11.8 N 23 28 1001.1 - 10.2 - - - - - - -
02/02:00am 12.4 N 21 25 1001.7 - 10.2 - - - - - - -
02/01:30am 12.1 N 21 25 1002.1 - 10.2 - - - - - - -
02/01:00am 12.2 N 19 24 1002.4 - 10.2 - - - - - - -
02/12:30am 12.4 NNW 19 24 1002.8 - 10.2 - - - - - - -
02/12:04am 12.1 N 18 29 1002.6 - 10.2 - - - - - - -
02/12:00am 12.5 N 17 22 1002.9 - 10.2 - - - - - - -
 
Date/Time
CST
Temp

°C
Wind Pressure Rain
since 9am
mm
Weather Cloud Vis
km
Sea
Height
m
Swell
Dir
 
Speed
knots
Gust
knots
hPa Trend Height
m
Period
s
Dir
01/11:30pm 12.2 N 13 15 1002.9 - 10.2 - - - - - - -
01/11:00pm 12.1 N 13 17 1003.3 - 10.2 - - - - - - -
01/10:30pm 12.3 NNW 12 18 1003.6 - 10.2 - - - - - - -
01/10:09pm 12.2 N 25 31 1004.0 - 9.4 - - - - - - -
01/10:00pm 13.3 NNE 23 29 1003.4 - 8.2 - - - - - - -
01/09:30pm 13.6 NNE 19 23 1003.6 - 7.8 - - - - - - -
01/09:00pm 13.4 N 24 29 1003.4 - 7.2 Rain - - - - - -
01/08:30pm 13.8 NNE 27 41 1003.7 - 6.0 - - - - - - -
01/08:22pm 13.7 NNE 28 41 1003.4 - 5.8 - - - - - - -
01/08:00pm 13.9 NNE 28 34 1002.7 - 5.0 - - - - - - -
01/07:30pm 13.7 NE 22 30 1002.4 - 5.0 - - - - - - -
01/07:00pm 13.5 NE 22 28 1002.3 - 5.0 - - - - - - -
01/06:30pm 13.1 NE 21 31 1002.2 - 5.0 - - - - - - -
01/06:11pm 13.0 NE 21 32 1002.1 - 5.0 - - - - - - -
01/06:00pm 13.0 NE 21 29 1002.0 - 5.0 - - - - - - -
01/05:30pm 13.5 NNE 29 34 1002.2 - 5.0 - - - - - - -
01/05:00pm 13.5 NNE 27 31 1002.4 - 5.0 - - - - - - -
01/04:30pm 13.6 NNE 30 34 1003.0 - 5.0 - - - - - - -
01/04:00pm 13.0 NNE 32 38 1003.1 - 5.0 - - - - - - -
01/03:30pm 12.9 NNE 27 31 1003.6 - 5.0 - - - - - - -
01/03:00pm 12.9 NNE 27 33 1004.3 - 3.6 Rain - - - - - -
01/02:30pm 13.6 N 23 28 1005.0 - 2.2 - - - - - - -
01/02:00pm 13.5 NNE 19 24 1005.2 - 2.2 - - - - - - -
01/01:30pm 13.6 N 14 17 1005.9 - 1.8 - - - - - - -
01/01:00pm 13.6 NNW 16 21 1006.6 - 1.4 - - - - - - -
01/12:30pm 13.9 N 17 21 1007.4 - 0.6 - - - - - - -
01/12:00pm 14.4 N 21 25 1007.7 - 0.2 - - - - - - -
01/11:30am 15.1 NE 15 21 1007.9 - 0.2 - - - - - - -
01/11:15am 15.0 NE 19 29 1007.5 - 0.2 - - - - - - -
01/11:00am 15.2 NE 21 27 1007.5 - 0.2 - - - - - - -
01/10:30am 15.0 ENE 19 22 1008.3 - 0.2 - - - - - - -
01/10:00am 14.8 ENE 20 23 1008.4 - 0.0 - - - - - - -
01/09:30am 14.4 ENE 16 19 1008.8 - 0.0 - - - - - - -
01/09:00am 14.3 NNE 15 18 1009.8 - 0.0 - - - - - - -
01/08:30am 14.4 NE 13 19 1009.6 - 0.0 - - - - - - -
01/08:00am 14.3 NE 12 17 1009.5 - 0.0 - - - - - - -
01/07:30am 14.3 NE 11 15 1009.5 - 0.0 - - - - - - -
01/07:00am 14.3 NNE 13 15 1009.4 - 0.0 - - - - - - -
01/06:30am 14.1 NNE 15 17 1009.4 - 0.0 - - - - - - -
01/06:00am 14.1 NNE 12 13 1009.7 - 0.0 - - - - - - -
01/05:30am 14.2 NNE 11 11 1009.6 - 0.0 - - - - - - -
01/05:00am 14.1 N 10 13 1009.8 - 0.0 - - - - - - -
01/04:30am 14.0 NNW 10 13 1010.2 - 0.0 - - - - - - -
01/04:00am 14.1 NNW 9 11 1010.3 - 0.0 - - - - - - -
01/03:30am 13.7 N 6 7 1010.2 - 0.0 - - - - - - -
01/03:00am 14.3 NW 7 8 1010.5 - 0.0 - - - - - - -
01/02:30am 14.2 N 7 8 1010.9 - 0.0 - - - - - - -
01/02:00am 14.2 NNE 10 11 1011.3 - 0.0 - - - - - - -
01/01:30am 14.3 NNE 13 16 1011.6 - 0.0 - - - - - - -
01/01:00am 14.4 NE 12 17 1011.8 - 0.0 - - - - - - -

Other Formats:

Comma delimited format used in spreadsheet applications
http://www.bom.gov.au/fwo/IDS60701/IDS60701.94804.axf

JavaScript Object Notation format (JSON) in row-major order
http://www.bom.gov.au/fwo/IDS60701/IDS60701.94804.json